.
WxDataArchive / Data Records for 2013-10-25
2013-10-24 October 2013 2013-10-26

Data Records for Friday, 25 October 2013

Time	Temp	Chill	HIndex	Humid	Dewpt	 Wind 	HiWind	WindDir	Rain 	Barom 
-----	----	-----	------	-----	-----	------	------	-------	-----	----- 
00:00	35.8	35.8	35.8	82	30.9	0	1	270	0.00	30.241 
00:05	35.6	35.6	35.6	83	31.0	0	1	270	0.00	30.241 
00:10	35.5	35.5	35.5	83	30.9	0	1	270	0.00	30.241 
00:15	35.5	35.5	35.5	82	30.6	0	1	270	0.00	30.245 
00:20	35.3	35.3	35.3	82	30.4	0	1	270	0.00	30.245 
00:25	35.3	35.3	35.3	82	30.4	0	1	270	0.00	30.245 
00:30	35.3	35.3	35.3	82	30.4	0	1	270	0.00	30.245 
00:35	35.3	35.3	35.3	82	30.4	0	1	270	0.00	30.245 
00:40	35.3	35.3	35.3	81	30.1	0	1	270	0.00	30.245 
00:45	35.5	35.5	35.5	81	30.3	0	1	270	0.00	30.246 
00:50	35.5	35.5	35.5	80	30.0	0	1	270	0.00	30.246 
00:55	35.5	35.5	35.5	80	30.0	0	1	270	0.00	30.246 
01:00	35.6	35.6	35.6	79	29.7	0	2	270	0.00	30.247 
01:05	35.6	35.6	35.6	78	29.4	0	2	270	0.00	30.247 
01:10	35.6	35.6	35.6	77	29.1	0	3	270	0.00	30.247 
01:15	35.6	35.6	35.6	77	29.1	0	2	270	0.00	30.246 
01:20	35.6	35.6	35.6	76	28.8	0	2	270	0.00	30.246 
01:25	35.6	35.6	35.6	75	28.5	0	1	270	0.00	30.246 
01:30	35.5	35.5	35.5	75	28.4	0	3	270	0.00	30.249 
01:35	35.3	35.3	35.3	74	27.9	0	1	270	0.00	30.249 
01:40	35.2	35.2	35.2	74	27.8	0	2	270	0.00	30.249 
01:45	35.0	35.0	35.0	74	27.6	0	1	270	0.00	30.252 
01:50	34.7	34.7	34.7	75	27.6	0	2	270	0.00	30.252 
01:55	34.6	34.6	34.6	75	27.5	0	2	270	0.00	30.252 
02:00	34.6	34.6	34.6	75	27.5	0	2	270	0.00	30.258 
02:05	34.4	34.4	34.4	75	27.3	0	2	270	0.00	30.258 
02:10	34.4	34.4	34.4	75	27.3	0	1	270	0.00	30.258 
02:15	34.3	34.3	34.3	75	27.2	0	1	270	0.00	30.264 
02:20	34.1	34.1	34.1	75	27.0	0	2	270	0.00	30.264 
02:25	34.0	34.0	34.0	75	26.9	0	2	270	0.00	30.264 
02:30	33.8	33.8	33.8	76	27.1	0	2	270	0.00	30.266 
02:35	33.8	33.8	33.8	76	27.1	0	2	270	0.00	30.266 
02:40	33.8	33.8	33.8	76	27.1	0	1	270	0.00	30.266 
02:45	33.8	33.8	33.8	76	27.1	1	3	270	0.00	30.267 
02:50	33.7	33.7	33.7	77	27.3	0	3	270	0.00	30.267 
02:55	33.7	33.7	33.7	77	27.3	0	1	270	0.00	30.267 
03:00	33.7	33.7	33.7	77	27.3	0	1	270	0.00	30.268 
03:05	33.7	33.7	33.7	77	27.3	0	1	270	0.00	30.268 
03:10	33.5	33.5	33.5	77	27.1	0	1	270	0.00	30.268 
03:15	33.5	33.5	33.5	78	27.4	0	2	270	0.00	30.269 
03:20	33.4	33.4	33.4	78	27.3	0	1	270	0.00	30.269 
03:25	33.4	33.4	33.4	79	27.6	0	1	270	0.00	30.269 
03:30	33.4	33.4	33.4	79	27.6	0	1	270	0.00	30.271 
03:35	33.2	33.2	33.2	79	27.4	0	1	270	0.00	30.271 
03:40	33.2	33.2	33.2	80	27.7	0	1	270	0.00	30.271 
03:45	33.4	33.4	33.4	81	28.2	0	2	270	0.00	30.281 
03:50	33.4	33.4	33.4	81	28.2	0	1	270	0.00	30.281 
03:55	33.4	33.4	33.4	81	28.2	0	1	270	0.00	30.281 
04:00	33.5	33.5	33.5	81	28.3	0	1	270	0.00	30.280 
04:05	33.5	33.5	33.5	81	28.3	0	1	270	0.00	30.280 
04:10	33.4	33.4	33.4	81	28.2	0	1	270	0.00	30.280 
04:15	33.2	33.2	33.2	81	28.0	0	1	270	0.00	30.281 
04:20	33.2	33.2	33.2	81	28.0	0	1	270	0.00	30.281 
04:25	33.1	33.1	33.1	81	27.9	0	1	270	0.00	30.281 
04:30	32.9	32.9	32.9	80	27.4	0	1	270	0.00	30.283 
04:35	32.8	32.8	32.8	80	27.3	0	1	270	0.00	30.283 
04:40	32.7	32.7	32.7	79	26.9	0	1	270	0.00	30.283 
04:45	32.7	32.7	32.7	79	26.9	0	1	270	0.00	30.283 
04:50	32.5	32.5	32.5	78	26.4	0	1	270	0.00	30.283 
04:55	32.4	32.4	32.4	78	26.3	0	1	270	0.00	30.283 
05:00	32.4	32.4	32.4	77	26.0	0	1	270	0.00	30.285 
05:05	32.2	32.2	32.2	77	25.8	0	1	270	0.00	30.285 
05:10	32.1	32.1	32.1	77	25.7	0	1	270	0.00	30.285 
05:15	31.9	31.9	31.9	77	25.5	0	1	270	0.00	30.289 
05:20	31.8	31.8	31.8	77	25.4	0	0	---	0.00	30.289 
05:25	31.8	31.8	31.8	77	25.4	0	1	270	0.00	30.289 
05:30	31.6	31.6	31.6	78	25.5	0	1	270	0.00	30.300 
05:35	31.6	31.6	31.6	78	25.5	0	1	270	0.00	30.300 
05:40	31.6	31.6	31.6	78	25.5	0	1	270	0.00	30.300 
05:45	31.6	31.6	31.6	78	25.5	0	1	270	0.00	30.306 
05:50	31.6	31.6	31.6	78	25.5	0	1	270	0.00	30.306 
05:55	31.5	31.5	31.5	78	25.4	0	0	---	0.00	30.306 
06:00	31.3	31.3	31.3	78	25.3	0	1	270	0.00	30.316 
06:05	31.2	31.2	31.2	78	25.2	0	1	270	0.00	30.316 
06:10	31.2	31.2	31.2	79	25.5	0	1	270	0.00	30.316 
06:15	31.2	31.2	31.2	79	25.5	0	1	270	0.00	30.318 
06:20	31.2	31.2	31.2	79	25.5	0	1	270	0.00	30.318 
06:25	31.2	31.2	31.2	79	25.5	0	1	270	0.00	30.318 
06:30	31.3	31.3	31.3	79	25.6	0	1	270	0.00	30.327 
06:35	31.5	31.5	31.5	79	25.8	0	1	270	0.00	30.327 
06:40	31.6	31.6	31.6	79	25.8	0	1	270	0.00	30.327 
06:45	31.8	31.8	31.8	79	26.0	0	2	270	0.00	30.331 
06:50	31.9	31.9	31.9	79	26.1	0	1	270	0.00	30.331 
06:55	31.9	31.9	31.9	79	26.1	0	1	270	0.00	30.331 
07:00	32.1	32.1	32.1	79	26.3	0	2	270	0.00	30.334 
07:05	32.2	32.2	32.2	79	26.4	0	2	270	0.00	30.334 
07:10	32.4	32.4	32.4	79	26.6	0	1	270	0.00	30.334 
07:15	32.4	32.4	32.4	78	26.3	0	1	270	0.00	30.336 
07:20	32.5	32.5	32.5	79	26.7	0	2	270	0.00	30.336 
07:25	32.5	32.5	32.5	79	26.7	0	1	270	0.00	30.336 
07:30	32.7	32.7	32.7	79	26.9	0	3	270	0.00	30.344 
07:35	32.7	32.7	32.7	79	26.9	0	1	270	0.00	30.344 
07:40	32.7	32.7	32.7	79	26.9	0	1	270	0.00	30.344 
07:45	32.8	32.8	32.8	79	27.0	0	2	270	0.00	30.347 
07:50	32.8	32.8	32.8	79	27.0	0	2	270	0.00	30.347 
07:55	32.8	32.8	32.8	79	27.0	0	1	270	0.00	30.347 
08:00	32.8	32.8	32.8	79	27.0	0	1	270	0.00	30.350 
08:05	32.9	32.9	32.9	79	27.1	0	2	270	0.00	30.350 
08:10	32.9	32.9	32.9	79	27.1	0	1	270	0.00	30.350 
08:15	32.9	32.9	32.9	79	27.1	0	1	270	0.00	30.355 
08:20	32.9	32.9	32.9	80	27.4	0	1	270	0.00	30.355 
08:25	33.1	33.1	33.1	80	27.6	0	2	270	0.00	30.355 
08:30	33.1	33.1	33.1	80	27.6	0	2	270	0.00	30.361 
08:35	33.2	33.2	33.2	80	27.7	0	1	270	0.00	30.361 
08:40	33.2	33.2	33.2	80	27.7	0	2	270	0.00	30.361 
08:45	33.2	33.2	33.2	80	27.7	0	2	270	0.00	30.366 
08:50	33.2	33.2	33.2	80	27.7	0	2	270	0.00	30.366 
08:55	33.2	33.2	33.2	80	27.7	0	1	270	0.00	30.366 
09:00	33.1	33.1	33.1	80	27.6	0	1	270	0.00	30.375 
09:05	33.1	33.1	33.1	80	27.6	0	1	270	0.00	30.375 
09:10	32.9	32.9	32.9	80	27.4	0	1	270	0.00	30.375 
09:15	32.9	32.9	32.9	81	27.7	0	0	---	0.00	30.379 
09:20	33.1	33.1	33.1	81	27.9	0	1	270	0.00	30.379 
09:25	33.4	33.4	33.4	81	28.2	0	0	---	0.00	30.379 
09:30	33.7	33.7	33.7	81	28.5	0	1	270	0.00	30.381 
09:35	34.0	34.0	34.0	80	28.5	0	1	270	0.00	30.381 
09:40	34.3	34.3	34.3	80	28.8	0	2	270	0.00	30.381 
09:45	34.7	34.7	34.7	79	28.9	0	2	270	0.00	30.382 
09:50	35.0	35.0	35.0	79	29.2	0	1	270	0.00	30.382 
09:55	35.5	35.5	35.5	78	29.3	0	1	270	0.00	30.382 
10:00	36.0	36.0	36.0	78	29.8	0	2	270	0.00	30.391 
10:05	36.5	36.5	36.5	77	30.0	0	1	270	0.00	30.391 
10:10	36.9	36.9	36.9	76	30.1	1	3	270	0.00	30.391 
10:15	37.6	37.6	37.6	75	30.4	1	2	270	0.00	30.389 
10:20	38.0	38.0	38.0	74	30.5	1	3	270	0.00	30.389 
10:25	38.3	38.3	38.3	73	30.4	1	3	270	0.00	30.389 
10:30	38.8	38.8	38.8	73	30.9	0	2	270	0.00	30.385 
10:35	39.1	39.1	39.1	72	30.8	1	2	270	0.00	30.385 
10:40	39.3	39.3	39.3	72	31.0	1	2	270	0.00	30.385 
10:45	39.6	39.6	39.6	71	31.0	1	3	270	0.00	30.384 
10:50	40.1	40.1	40.1	71	31.5	1	3	270	0.00	30.384 
10:55	40.3	40.3	40.3	70	31.3	1	3	270	0.00	30.384 
11:00	40.8	40.8	40.8	69	31.4	1	2	270	0.00	30.389 
11:05	41.1	41.1	41.1	68	31.4	0	2	270	0.00	30.389 
11:10	41.2	41.2	41.2	68	31.5	1	3	270	0.00	30.389 
11:15	41.3	41.3	41.3	68	31.5	0	2	270	0.00	30.389 
11:20	41.8	41.8	41.8	68	32.0	1	4	270	0.00	30.389 
11:25	42.2	42.2	42.2	69	32.8	0	2	270	0.00	30.389 
11:30	42.5	42.5	42.5	68	32.7	1	3	270	0.00	30.387 
11:35	42.6	42.6	42.6	66	32.0	1	4	270	0.00	30.387 
11:40	42.9	42.9	42.9	66	32.3	1	3	270	0.00	30.387 
11:45	43.3	43.3	43.3	65	32.3	0	2	270	0.00	30.384 
11:50	43.6	43.6	43.6	64	32.2	1	3	270	0.00	30.384 
11:55	43.8	43.8	43.8	62	31.6	1	4	270	0.00	30.384 
12:00	43.9	43.9	43.9	62	31.7	1	3	270	0.00	30.378 
12:05	44.3	44.3	44.3	62	32.1	1	3	270	0.00	30.378 
12:10	44.5	44.5	44.5	60	31.5	1	4	270	0.00	30.378 
12:15	44.9	44.9	44.9	60	31.9	1	3	270	0.00	30.374 
12:20	45.2	45.2	45.2	59	31.7	1	3	270	0.00	30.374 
12:25	45.5	45.5	45.5	58	31.6	1	2	270	0.00	30.374 
12:30	45.1	45.1	45.1	56	30.4	2	4	270	0.00	30.375 
12:35	45.2	45.2	45.2	54	29.6	2	5	315	0.00	30.375 
12:40	45.2	45.2	45.2	54	29.6	2	6	315	0.00	30.375 
12:45	45.2	45.2	45.2	55	30.0	1	4	292	0.00	30.371 
12:50	45.4	45.4	45.4	53	29.3	2	5	292	0.00	30.371 
12:55	44.6	44.6	44.6	50	27.1	2	5	292	0.00	30.371 
13:00	44.6	44.6	44.6	53	28.5	1	4	292	0.00	30.369 
13:05	44.5	44.5	44.5	53	28.4	1	5	292	0.00	30.369 
13:10	44.5	44.5	44.5	52	28.0	1	4	270	0.00	30.369 
13:15	45.1	45.1	45.1	53	29.0	1	4	338	0.00	30.361 
13:20	45.5	45.5	45.5	51	28.4	1	3	315	0.00	30.361 
13:25	45.7	45.7	45.7	47	26.6	3	5	270	0.00	30.361 
13:30	46.4	46.4	46.4	47	27.3	2	5	292	0.00	30.357 
13:35	46.1	46.1	46.1	47	27.0	2	7	315	0.00	30.357 
13:40	45.7	45.7	45.7	48	27.1	2	7	292	0.00	30.357 
13:45	45.2	45.2	45.2	48	26.7	2	5	270	0.00	30.355 
13:50	45.1	45.1	45.1	49	27.1	2	6	270	0.00	30.355 
13:55	44.9	44.9	44.9	49	26.9	2	4	270	0.00	30.355 
14:00	44.8	44.8	44.8	50	27.3	2	4	292	0.00	30.346 
14:05	44.8	44.8	44.8	50	27.3	1	4	270	0.00	30.346 
14:10	45.4	45.4	45.4	50	27.9	1	4	270	0.00	30.346 
14:15	46.4	46.4	46.4	47	27.3	1	4	248	0.00	30.339 
14:20	47.0	47.0	47.0	44	26.2	2	6	248	0.00	30.339 
14:25	47.7	47.7	47.7	46	27.9	1	4	270	0.00	30.339 
14:30	47.9	47.9	47.9	43	26.5	2	7	270	0.00	30.331 
14:35	47.6	47.6	47.6	42	25.7	1	4	248	0.00	30.331 
14:40	47.1	47.1	47.1	43	25.8	2	6	270	0.00	30.331 
14:45	46.8	46.8	46.8	43	25.5	1	4	292	0.00	30.324 
14:50	46.4	46.4	46.4	43	25.1	1	6	292	0.00	30.324 
14:55	45.8	45.8	45.8	43	24.6	1	4	292	0.00	30.324 
15:00	45.4	45.4	45.4	43	24.2	1	4	292	0.00	30.323 
15:05	45.7	45.7	45.7	45	25.6	1	3	270	0.00	30.323 
15:10	46.4	46.4	46.4	44	25.7	1	3	270	0.00	30.323 
15:15	47.0	47.0	47.0	40	23.9	1	3	270	0.00	30.320 
15:20	47.4	47.4	47.4	41	24.9	0	3	248	0.00	30.320 
15:25	47.7	47.7	47.7	38	23.4	2	5	270	0.00	30.320 
15:30	48.0	48.0	48.0	40	24.8	2	7	270	0.00	30.313 
15:35	47.9	47.9	47.9	39	24.1	1	6	248	0.00	30.313 
15:40	48.0	48.0	48.0	39	24.2	1	4	270	0.00	30.313 
15:45	48.0	48.0	48.0	39	24.2	1	4	270	0.00	30.307 
15:50	48.5	48.5	48.5	39	24.7	1	3	315	0.00	30.307 
15:55	48.6	48.6	48.6	36	22.9	1	4	225	0.00	30.307 
16:00	48.6	48.6	48.6	36	22.9	1	3	248	0.00	30.307 
16:05	48.0	48.0	48.0	37	23.0	1	3	248	0.00	30.307 
16:10	47.9	47.9	47.9	37	22.9	1	3	248	0.00	30.307 
16:15	47.6	47.6	47.6	38	23.3	1	5	248	0.00	30.309 
16:20	47.3	47.3	47.3	38	23.0	1	3	270	0.00	30.309 
16:25	47.0	47.0	47.0	39	23.3	1	4	270	0.00	30.309 
16:30	46.8	46.8	46.8	39	23.2	2	4	270	0.00	30.305 
16:35	47.1	47.1	47.1	40	24.0	2	4	270	0.00	30.305 
16:40	47.6	47.6	47.6	40	24.5	1	4	292	0.00	30.305 
16:45	47.6	47.6	47.6	38	23.3	1	6	270	0.00	30.299 
16:50	47.3	47.3	47.3	39	23.6	1	6	270	0.00	30.299 
16:55	46.4	46.4	46.4	41	24.0	1	5	270	0.00	30.299 
17:00	46.0	46.0	46.0	43	24.8	1	5	270	0.00	30.301 
17:05	45.7	45.7	45.7	44	25.0	1	3	270	0.00	30.301 
17:10	45.8	45.8	45.8	43	24.6	1	3	270	0.00	30.301 
17:15	46.2	46.2	46.2	43	25.0	1	4	270	0.00	30.297 
17:20	46.5	46.5	46.5	43	25.2	0	2	270	0.00	30.297 
17:25	46.4	46.4	46.4	42	24.6	1	4	270	0.00	30.297 
17:30	46.4	46.4	46.4	42	24.6	1	4	270	0.00	30.295 
17:35	46.4	46.4	46.4	43	25.1	0	2	270	0.00	30.295 
17:40	46.5	46.5	46.5	43	25.2	0	1	270	0.00	30.295 
17:45	46.4	46.4	46.4	42	24.6	0	3	270	0.00	30.285 
17:50	46.0	46.0	46.0	42	24.2	1	5	270	0.00	30.285 
17:55	45.7	45.7	45.7	43	24.5	0	2	270	0.00	30.285 
18:00	45.5	45.5	45.5	45	25.4	1	3	270	0.00	30.283 
18:05	45.2	45.2	45.2	44	24.6	0	2	270	0.00	30.283 
18:10	45.2	45.2	45.2	44	24.6	0	1	270	0.00	30.283 
18:15	45.1	45.1	45.1	45	25.0	0	1	270	0.00	30.280 
18:20	44.9	44.9	44.9	44	24.3	0	4	248	0.00	30.280 
18:25	44.8	44.8	44.8	44	24.2	0	2	248	0.00	30.280 
18:30	44.6	44.6	44.6	45	24.6	0	3	248	0.00	30.278 
18:35	44.5	44.5	44.5	45	24.5	0	2	248	0.00	30.278 
18:40	44.2	44.2	44.2	46	24.7	0	1	248	0.00	30.278 
18:45	43.9	43.9	43.9	46	24.5	0	1	248	0.00	30.270 
18:50	43.6	43.6	43.6	47	24.7	0	1	248	0.00	30.270 
18:55	43.3	43.3	43.3	48	24.9	0	1	248	0.00	30.270 
19:00	43.1	43.1	43.1	48	24.8	0	1	248	0.00	30.269 
19:05	42.8	42.8	42.8	49	25.0	0	0	---	0.00	30.269 
19:10	42.5	42.5	42.5	50	25.2	0	1	248	0.00	30.269 
19:15	42.2	42.2	42.2	50	24.9	0	2	248	0.00	30.268 
19:20	42.1	42.1	42.1	50	24.8	0	0	---	0.00	30.268 
19:25	41.9	41.9	41.9	51	25.1	0	0	---	0.00	30.268 
19:30	41.6	41.6	41.6	52	25.3	0	1	248	0.00	30.266 
19:35	41.3	41.3	41.3	53	25.5	0	1	248	0.00	30.266 
19:40	41.1	41.1	41.1	53	25.3	0	1	248	0.00	30.266 
19:45	40.8	40.8	40.8	54	25.5	0	0	---	0.00	30.264 
19:50	40.5	40.5	40.5	55	25.6	0	0	---	0.00	30.264 
19:55	40.2	40.2	40.2	55	25.3	0	1	248	0.00	30.264 
20:00	40.1	40.1	40.1	56	25.7	0	0	---	0.00	30.258 
20:05	39.9	39.9	39.9	56	25.5	0	1	248	0.00	30.258 
20:10	39.9	39.9	39.9	57	25.9	0	1	248	0.00	30.258 
20:15	39.8	39.8	39.8	57	25.8	0	1	248	0.00	30.255 
20:20	39.6	39.6	39.6	58	26.1	0	1	248	0.00	30.255 
20:25	39.6	39.6	39.6	58	26.1	0	1	248	0.00	30.255 
20:30	39.6	39.6	39.6	58	26.1	0	1	248	0.00	30.252 
20:35	39.6	39.6	39.6	58	26.1	0	1	248	0.00	30.252 
20:40	39.5	39.5	39.5	59	26.4	0	1	248	0.00	30.252 
20:45	39.3	39.3	39.3	59	26.2	0	1	248	0.00	30.244 
20:50	39.2	39.2	39.2	59	26.1	0	1	248	0.00	30.244 
20:55	39.2	39.2	39.2	60	26.5	0	2	248	0.00	30.244 
21:00	39.2	39.2	39.2	59	26.1	0	1	248	0.00	30.238 
21:05	39.2	39.2	39.2	60	26.5	0	0	---	0.00	30.238 
21:10	39.2	39.2	39.2	60	26.5	0	2	248	0.00	30.238 
21:15	39.2	39.2	39.2	59	26.1	0	1	248	0.00	30.233 
21:20	39.2	39.2	39.2	59	26.1	0	3	248	0.00	30.233 
21:25	39.3	39.3	39.3	59	26.2	0	1	248	0.00	30.233 
21:30	39.3	39.3	39.3	59	26.2	0	1	248	0.00	30.226 
21:35	39.3	39.3	39.3	59	26.2	0	1	248	0.00	30.226 
21:40	39.5	39.5	39.5	58	26.0	0	5	248	0.00	30.226 
21:45	39.6	39.6	39.6	58	26.1	0	1	248	0.00	30.218 
21:50	39.6	39.6	39.6	58	26.1	0	2	248	0.00	30.218 
21:55	39.8	39.8	39.8	58	26.2	0	3	248	0.00	30.218 
22:00	39.8	39.8	39.8	58	26.2	0	4	315	0.00	30.212 
22:05	39.8	39.8	39.8	58	26.2	0	1	225	0.00	30.212 
22:10	39.8	39.8	39.8	57	25.8	0	2	225	0.00	30.212 
22:15	39.8	39.8	39.8	57	25.8	0	2	248	0.00	30.203 
22:20	39.8	39.8	39.8	57	25.8	0	1	248	0.00	30.203 
22:25	39.8	39.8	39.8	57	25.8	0	2	248	0.00	30.203 
22:30	39.9	39.9	39.9	57	25.9	0	2	248	0.00	30.198 
22:35	39.9	39.9	39.9	56	25.5	0	3	248	0.00	30.198 
22:40	39.9	39.9	39.9	56	25.5	0	2	292	0.00	30.198 
22:45	40.1	40.1	40.1	56	25.7	0	3	248	0.00	30.198 
22:50	40.1	40.1	40.1	56	25.7	0	2	248	0.00	30.198 
22:55	40.1	40.1	40.1	56	25.7	0	1	248	0.00	30.198 
23:00	39.9	39.9	39.9	56	25.5	0	3	248	0.00	30.196 
23:05	39.8	39.8	39.8	57	25.8	0	1	248	0.00	30.196 
23:10	39.8	39.8	39.8	57	25.8	0	4	248	0.00	30.196 
23:15	39.6	39.6	39.6	57	25.6	0	2	248	0.00	30.189 
23:20	39.6	39.6	39.6	57	25.6	0	2	248	0.00	30.189 
23:25	39.6	39.6	39.6	57	25.6	0	2	248	0.00	30.189 
23:30	39.6	39.6	39.6	57	25.6	1	4	248	0.00	30.183 
23:35	39.6	39.6	39.6	57	25.6	0	3	270	0.00	30.183 
23:40	39.5	39.5	39.5	57	25.5	0	2	270	0.00	30.183 
23:45	39.5	39.5	39.5	57	25.5	0	2	248	0.00	30.179 
23:50	39.3	39.3	39.3	57	25.4	0	3	248	0.00	30.179 
23:55	39.3	39.3	39.3	57	25.4	0	4	248	0.00	30.179 

CoCoRaHS
IN-AL-39
A2 Web Hosting
Creative Commons License
GoDaddy
search engine by freefind advanced

loaded 2018-11-17 22:28:43 • last modified 2010-11-18 10:43:29
Privacy PolicyDisclaimer
• wx.awcolley.com is powered by PmWiki v.2002016 •
• all content (unless otherwise noted) © 2018 A W Colley